sensor_id;sensor_type;location;lat;lon;timestamp;P1;durP1;ratioP1;P2;durP2;ratioP2
39948;SDS011;29070;48.102;-1.652;2023-05-07T00:03:50;8.20;;;2.73;;
39948;SDS011;29070;48.102;-1.652;2023-05-07T00:08:51;10.40;;;3.03;;
39948;SDS011;29070;48.102;-1.652;2023-05-07T00:13:51;10.30;;;2.83;;
39948;SDS011;29070;48.102;-1.652;2023-05-07T00:18:52;12.68;;;3.05;;
39948;SDS011;29070;48.102;-1.652;2023-05-07T00:23:53;8.80;;;2.92;;
39948;SDS011;29070;48.102;-1.652;2023-05-07T00:28:53;10.65;;;3.28;;
39948;SDS011;29070;48.102;-1.652;2023-05-07T00:33:54;9.05;;;2.45;;
39948;SDS011;29070;48.102;-1.652;2023-05-07T00:38:54;12.77;;;2.80;;
39948;SDS011;29070;48.102;-1.652;2023-05-07T00:43:55;7.53;;;2.58;;
39948;SDS011;29070;48.102;-1.652;2023-05-07T00:48:55;11.80;;;2.70;;
39948;SDS011;29070;48.102;-1.652;2023-05-07T00:53:56;11.88;;;2.90;;
39948;SDS011;29070;48.102;-1.652;2023-05-07T00:58:57;5.47;;;2.42;;
39948;SDS011;29070;48.102;-1.652;2023-05-07T01:03:57;12.20;;;3.33;;
39948;SDS011;29070;48.102;-1.652;2023-05-07T01:08:58;11.77;;;3.47;;
39948;SDS011;29070;48.102;-1.652;2023-05-07T01:13:59;9.88;;;3.08;;
39948;SDS011;29070;48.102;-1.652;2023-05-07T01:19:00;10.82;;;2.63;;
39948;SDS011;29070;48.102;-1.652;2023-05-07T01:24:01;9.52;;;2.67;;
39948;SDS011;29070;48.102;-1.652;2023-05-07T01:29:01;9.52;;;2.70;;
39948;SDS011;29070;48.102;-1.652;2023-05-07T01:34:02;8.50;;;2.93;;
39948;SDS011;29070;48.102;-1.652;2023-05-07T01:39:05;8.32;;;2.92;;
39948;SDS011;29070;48.102;-1.652;2023-05-07T01:44:06;10.82;;;2.72;;
39948;SDS011;29070;48.102;-1.652;2023-05-07T01:49:08;12.32;;;3.20;;
39948;SDS011;29070;48.102;-1.652;2023-05-07T01:54:09;8.93;;;2.60;;
39948;SDS011;29070;48.102;-1.652;2023-05-07T01:59:09;7.53;;;2.33;;
39948;SDS011;29070;48.102;-1.652;2023-05-07T02:04:10;12.05;;;2.63;;
39948;SDS011;29070;48.102;-1.652;2023-05-07T02:09:11;14.97;;;2.67;;
39948;SDS011;29070;48.102;-1.652;2023-05-07T02:14:11;11.23;;;2.72;;
39948;SDS011;29070;48.102;-1.652;2023-05-07T02:19:12;7.10;;;2.83;;
39948;SDS011;29070;48.102;-1.652;2023-05-07T02:24:12;12.83;;;3.43;;
39948;SDS011;29070;48.102;-1.652;2023-05-07T02:29:12;11.33;;;3.17;;
39948;SDS011;29070;48.102;-1.652;2023-05-07T02:34:13;12.02;;;2.50;;
39948;SDS011;29070;48.102;-1.652;2023-05-07T02:39:13;7.10;;;2.63;;
39948;SDS011;29070;48.102;-1.652;2023-05-07T02:44:15;9.35;;;3.20;;
39948;SDS011;29070;48.102;-1.652;2023-05-07T02:49:15;9.13;;;2.90;;
39948;SDS011;29070;48.102;-1.652;2023-05-07T02:54:16;12.77;;;3.03;;
39948;SDS011;29070;48.102;-1.652;2023-05-07T02:59:17;13.68;;;3.92;;
39948;SDS011;29070;48.102;-1.652;2023-05-07T03:04:18;12.20;;;3.10;;
39948;SDS011;29070;48.102;-1.652;2023-05-07T03:09:18;9.13;;;3.20;;
39948;SDS011;29070;48.102;-1.652;2023-05-07T03:14:18;12.33;;;3.63;;
39948;SDS011;29070;48.102;-1.652;2023-05-07T03:19:18;12.10;;;3.70;;
39948;SDS011;29070;48.102;-1.652;2023-05-07T03:24:19;14.77;;;3.53;;
39948;SDS011;29070;48.102;-1.652;2023-05-07T03:29:19;13.95;;;3.00;;
39948;SDS011;29070;48.102;-1.652;2023-05-07T03:34:20;14.57;;;3.20;;
39948;SDS011;29070;48.102;-1.652;2023-05-07T03:39:22;13.98;;;3.03;;
39948;SDS011;29070;48.102;-1.652;2023-05-07T03:44:22;10.45;;;3.15;;
39948;SDS011;29070;48.102;-1.652;2023-05-07T03:49:23;9.67;;;3.07;;
39948;SDS011;29070;48.102;-1.652;2023-05-07T03:54:23;14.77;;;3.30;;
39948;SDS011;29070;48.102;-1.652;2023-05-07T03:59:23;12.37;;;3.57;;
39948;SDS011;29070;48.102;-1.652;2023-05-07T04:04:24;9.77;;;3.30;;
39948;SDS011;29070;48.102;-1.652;2023-05-07T04:09:24;8.32;;;2.78;;
39948;SDS011;29070;48.102;-1.652;2023-05-07T04:14:25;9.55;;;2.83;;
39948;SDS011;29070;48.102;-1.652;2023-05-07T04:19:25;7.70;;;2.37;;
39948;SDS011;29070;48.102;-1.652;2023-05-07T04:24:26;7.87;;;3.53;;
39948;SDS011;29070;48.102;-1.652;2023-05-07T04:29:26;9.05;;;3.05;;
39948;SDS011;29070;48.102;-1.652;2023-05-07T04:34:27;13.77;;;3.08;;
39948;SDS011;29070;48.102;-1.652;2023-05-07T04:39:27;7.47;;;2.57;;
39948;SDS011;29070;48.102;-1.652;2023-05-07T04:44:27;7.18;;;2.60;;
39948;SDS011;29070;48.102;-1.652;2023-05-07T04:49:28;10.60;;;2.63;;
39948;SDS011;29070;48.102;-1.652;2023-05-07T04:54:28;8.00;;;2.30;;
39948;SDS011;29070;48.102;-1.652;2023-05-07T04:59:28;7.67;;;2.13;;
39948;SDS011;29070;48.102;-1.652;2023-05-07T05:04:29;4.37;;;2.20;;
39948;SDS011;29070;48.102;-1.652;2023-05-07T05:09:30;10.90;;;2.17;;
39948;SDS011;29070;48.102;-1.652;2023-05-07T05:14:30;7.78;;;2.47;;
39948;SDS011;29070;48.102;-1.652;2023-05-07T05:19:30;7.47;;;2.53;;
39948;SDS011;29070;48.102;-1.652;2023-05-07T05:24:31;5.97;;;2.40;;
39948;SDS011;29070;48.102;-1.652;2023-05-07T05:29:31;11.02;;;2.67;;
39948;SDS011;29070;48.102;-1.652;2023-05-07T05:34:32;9.23;;;2.77;;
39948;SDS011;29070;48.102;-1.652;2023-05-07T05:39:33;8.20;;;2.40;;
39948;SDS011;29070;48.102;-1.652;2023-05-07T05:44:33;7.57;;;2.07;;
39948;SDS011;29070;48.102;-1.652;2023-05-07T05:49:33;5.03;;;2.23;;
39948;SDS011;29070;48.102;-1.652;2023-05-07T05:54:35;7.07;;;1.88;;
39948;SDS011;29070;48.102;-1.652;2023-05-07T05:59:35;5.57;;;2.30;;
39948;SDS011;29070;48.102;-1.652;2023-05-07T06:04:35;5.53;;;2.37;;
39948;SDS011;29070;48.102;-1.652;2023-05-07T06:09:36;6.97;;;2.40;;
39948;SDS011;29070;48.102;-1.652;2023-05-07T06:14:36;5.37;;;2.20;;
39948;SDS011;29070;48.102;-1.652;2023-05-07T06:19:36;7.23;;;2.50;;
39948;SDS011;29070;48.102;-1.652;2023-05-07T06:24:37;8.33;;;2.77;;
39948;SDS011;29070;48.102;-1.652;2023-05-07T06:29:37;7.33;;;2.70;;
39948;SDS011;29070;48.102;-1.652;2023-05-07T06:34:38;7.73;;;2.20;;
39948;SDS011;29070;48.102;-1.652;2023-05-07T06:39:39;7.00;;;2.80;;
39948;SDS011;29070;48.102;-1.652;2023-05-07T06:44:39;6.13;;;2.30;;
39948;SDS011;29070;48.102;-1.652;2023-05-07T06:49:39;5.80;;;2.50;;
39948;SDS011;29070;48.102;-1.652;2023-05-07T06:54:40;6.13;;;2.30;;
39948;SDS011;29070;48.102;-1.652;2023-05-07T06:59:40;5.70;;;3.00;;
39948;SDS011;29070;48.102;-1.652;2023-05-07T07:04:40;6.90;;;2.70;;
39948;SDS011;29070;48.102;-1.652;2023-05-07T07:09:41;4.35;;;2.42;;
39948;SDS011;29070;48.102;-1.652;2023-05-07T07:14:42;6.33;;;2.60;;
39948;SDS011;29070;48.102;-1.652;2023-05-07T07:19:42;4.67;;;2.27;;
39948;SDS011;29070;48.102;-1.652;2023-05-07T07:24:42;4.13;;;2.10;;
39948;SDS011;29070;48.102;-1.652;2023-05-07T07:29:43;3.93;;;2.33;;
39948;SDS011;29070;48.102;-1.652;2023-05-07T07:34:43;6.87;;;3.10;;
39948;SDS011;29070;48.102;-1.652;2023-05-07T07:39:43;6.63;;;3.37;;
39948;SDS011;29070;48.102;-1.652;2023-05-07T07:44:44;7.45;;;3.60;;
39948;SDS011;29070;48.102;-1.652;2023-05-07T07:49:44;7.65;;;3.70;;
39948;SDS011;29070;48.102;-1.652;2023-05-07T07:54:45;8.80;;;4.37;;
39948;SDS011;29070;48.102;-1.652;2023-05-07T07:59:45;9.10;;;4.27;;
39948;SDS011;29070;48.102;-1.652;2023-05-07T08:04:45;10.60;;;4.30;;
39948;SDS011;29070;48.102;-1.652;2023-05-07T08:09:46;9.93;;;4.00;;
39948;SDS011;29070;48.102;-1.652;2023-05-07T08:14:46;9.20;;;4.35;;
39948;SDS011;29070;48.102;-1.652;2023-05-07T08:19:47;8.07;;;3.90;;
39948;SDS011;29070;48.102;-1.652;2023-05-07T08:24:48;8.23;;;3.92;;
39948;SDS011;29070;48.102;-1.652;2023-05-07T08:29:48;5.43;;;2.60;;
39948;SDS011;29070;48.102;-1.652;2023-05-07T08:34:48;8.27;;;3.10;;
39948;SDS011;29070;48.102;-1.652;2023-05-07T08:39:49;5.63;;;2.67;;
39948;SDS011;29070;48.102;-1.652;2023-05-07T08:44:50;6.40;;;2.80;;
39948;SDS011;29070;48.102;-1.652;2023-05-07T08:49:53;6.63;;;2.92;;
39948;SDS011;29070;48.102;-1.652;2023-05-07T08:54:54;5.50;;;3.45;;
39948;SDS011;29070;48.102;-1.652;2023-05-07T08:59:55;6.67;;;3.40;;
39948;SDS011;29070;48.102;-1.652;2023-05-07T09:04:55;6.53;;;2.90;;
39948;SDS011;29070;48.102;-1.652;2023-05-07T09:09:55;6.47;;;2.70;;
39948;SDS011;29070;48.102;-1.652;2023-05-07T09:14:57;5.45;;;2.72;;
39948;SDS011;29070;48.102;-1.652;2023-05-07T09:20:04;4.45;;;2.22;;
39948;SDS011;29070;48.102;-1.652;2023-05-07T09:25:06;6.05;;;2.65;;
39948;SDS011;29070;48.102;-1.652;2023-05-07T09:30:07;3.55;;;2.13;;
39948;SDS011;29070;48.102;-1.652;2023-05-07T09:35:17;4.32;;;2.55;;
39948;SDS011;29070;48.102;-1.652;2023-05-07T09:40:21;4.28;;;2.22;;
39948;SDS011;29070;48.102;-1.652;2023-05-07T09:45:26;2.55;;;1.58;;
39948;SDS011;29070;48.102;-1.652;2023-05-07T09:50:30;3.13;;;2.15;;
39948;SDS011;29070;48.102;-1.652;2023-05-07T09:55:36;5.22;;;1.88;;
39948;SDS011;29070;48.102;-1.652;2023-05-07T10:00:37;3.20;;;1.88;;
39948;SDS011;29070;48.102;-1.652;2023-05-07T10:05:40;3.97;;;1.65;;
39948;SDS011;29070;48.102;-1.652;2023-05-07T10:10:42;2.33;;;1.52;;
39948;SDS011;29070;48.102;-1.652;2023-05-07T10:15:42;3.13;;;1.70;;
39948;SDS011;29070;48.102;-1.652;2023-05-07T10:20:43;3.47;;;1.40;;
39948;SDS011;29070;48.102;-1.652;2023-05-07T10:25:46;2.80;;;1.70;;
39948;SDS011;29070;48.102;-1.652;2023-05-07T10:36:24;7.47;;;3.55;;
39948;SDS011;29070;48.102;-1.652;2023-05-07T10:41:26;3.97;;;1.63;;
39948;SDS011;29070;48.102;-1.652;2023-05-07T10:46:26;2.27;;;1.53;;
39948;SDS011;29070;48.102;-1.652;2023-05-07T10:51:27;3.65;;;1.58;;
39948;SDS011;29070;48.102;-1.652;2023-05-07T10:56:29;5.50;;;2.67;;
39948;SDS011;29070;48.102;-1.652;2023-05-07T11:12:06;5.90;;;2.95;;
39948;SDS011;29070;48.102;-1.652;2023-05-07T11:17:06;5.23;;;2.77;;
39948;SDS011;29070;48.102;-1.652;2023-05-07T11:22:25;5.43;;;2.65;;
39948;SDS011;29070;48.102;-1.652;2023-05-07T11:27:31;5.70;;;2.38;;
39948;SDS011;29070;48.102;-1.652;2023-05-07T11:32:32;5.50;;;2.58;;
39948;SDS011;29070;48.102;-1.652;2023-05-07T11:37:32;7.13;;;2.73;;
39948;SDS011;29070;48.102;-1.652;2023-05-07T11:42:34;4.35;;;2.38;;
39948;SDS011;29070;48.102;-1.652;2023-05-07T11:47:37;4.50;;;2.10;;
39948;SDS011;29070;48.102;-1.652;2023-05-07T11:52:37;4.27;;;1.97;;
39948;SDS011;29070;48.102;-1.652;2023-05-07T11:57:39;3.80;;;1.85;;
39948;SDS011;29070;48.102;-1.652;2023-05-07T12:02:39;3.60;;;1.57;;
39948;SDS011;29070;48.102;-1.652;2023-05-07T12:07:39;5.93;;;2.60;;
39948;SDS011;29070;48.102;-1.652;2023-05-07T12:12:40;8.83;;;3.00;;
39948;SDS011;29070;48.102;-1.652;2023-05-07T12:17:44;8.38;;;2.20;;
39948;SDS011;29070;48.102;-1.652;2023-05-07T12:22:44;9.77;;;2.50;;
39948;SDS011;29070;48.102;-1.652;2023-05-07T12:27:51;7.57;;;2.90;;
39948;SDS011;29070;48.102;-1.652;2023-05-07T12:37:56;6.82;;;2.20;;
39948;SDS011;29070;48.102;-1.652;2023-05-07T12:42:59;4.45;;;2.25;;
39948;SDS011;29070;48.102;-1.652;2023-05-07T12:48:01;7.07;;;2.50;;
39948;SDS011;29070;48.102;-1.652;2023-05-07T12:53:03;6.80;;;2.78;;
39948;SDS011;29070;48.102;-1.652;2023-05-07T12:58:07;8.38;;;2.10;;
39948;SDS011;29070;48.102;-1.652;2023-05-07T13:03:08;9.20;;;2.50;;
39948;SDS011;29070;48.102;-1.652;2023-05-07T13:08:09;4.72;;;2.45;;
39948;SDS011;29070;48.102;-1.652;2023-05-07T13:13:09;7.00;;;2.10;;
39948;SDS011;29070;48.102;-1.652;2023-05-07T13:18:10;5.40;;;1.90;;
39948;SDS011;29070;48.102;-1.652;2023-05-07T13:23:11;2.75;;;1.60;;
39948;SDS011;29070;48.102;-1.652;2023-05-07T13:28:11;5.78;;;1.63;;
39948;SDS011;29070;48.102;-1.652;2023-05-07T13:33:12;9.95;;;2.17;;
39948;SDS011;29070;48.102;-1.652;2023-05-07T13:38:13;3.28;;;1.42;;
39948;SDS011;29070;48.102;-1.652;2023-05-07T13:43:15;4.30;;;1.80;;
39948;SDS011;29070;48.102;-1.652;2023-05-07T13:48:17;5.25;;;1.70;;
39948;SDS011;29070;48.102;-1.652;2023-05-07T13:53:20;2.93;;;1.53;;
39948;SDS011;29070;48.102;-1.652;2023-05-07T13:58:21;2.35;;;1.48;;
39948;SDS011;29070;48.102;-1.652;2023-05-07T14:03:21;2.00;;;1.30;;
39948;SDS011;29070;48.102;-1.652;2023-05-07T14:08:22;4.33;;;1.37;;
39948;SDS011;29070;48.102;-1.652;2023-05-07T14:13:22;4.27;;;1.40;;
39948;SDS011;29070;48.102;-1.652;2023-05-07T14:18:22;3.70;;;1.30;;
39948;SDS011;29070;48.102;-1.652;2023-05-07T14:23:23;2.63;;;1.17;;
39948;SDS011;29070;48.102;-1.652;2023-05-07T14:28:26;2.22;;;1.00;;
39948;SDS011;29070;48.102;-1.652;2023-05-07T14:33:26;2.37;;;0.80;;
39948;SDS011;29070;48.102;-1.652;2023-05-07T14:38:27;3.23;;;1.03;;
39948;SDS011;29070;48.102;-1.652;2023-05-07T14:43:27;1.47;;;1.00;;
39948;SDS011;29070;48.102;-1.652;2023-05-07T14:48:27;4.83;;;1.43;;
39948;SDS011;29070;48.102;-1.652;2023-05-07T14:53:28;2.23;;;0.73;;
39948;SDS011;29070;48.102;-1.652;2023-05-07T14:58:28;3.43;;;0.90;;
39948;SDS011;29070;48.102;-1.652;2023-05-07T15:03:29;3.30;;;0.82;;
39948;SDS011;29070;48.102;-1.652;2023-05-07T15:08:30;1.70;;;0.98;;
39948;SDS011;29070;48.102;-1.652;2023-05-07T15:13:30;2.43;;;1.10;;
39948;SDS011;29070;48.102;-1.652;2023-05-07T15:18:30;3.43;;;1.03;;
39948;SDS011;29070;48.102;-1.652;2023-05-07T15:23:31;3.93;;;1.20;;
39948;SDS011;29070;48.102;-1.652;2023-05-07T15:28:31;5.03;;;1.10;;
39948;SDS011;29070;48.102;-1.652;2023-05-07T15:33:32;4.25;;;1.17;;
39948;SDS011;29070;48.102;-1.652;2023-05-07T15:38:33;4.40;;;1.40;;
39948;SDS011;29070;48.102;-1.652;2023-05-07T15:43:36;4.22;;;1.00;;
39948;SDS011;29070;48.102;-1.652;2023-05-07T15:48:44;3.72;;;1.02;;
39948;SDS011;29070;48.102;-1.652;2023-05-07T15:53:44;4.28;;;1.27;;
39948;SDS011;29070;48.102;-1.652;2023-05-07T15:58:45;4.25;;;1.08;;
39948;SDS011;29070;48.102;-1.652;2023-05-07T16:03:46;2.13;;;0.98;;
39948;SDS011;29070;48.102;-1.652;2023-05-07T16:08:46;3.97;;;1.02;;
39948;SDS011;29070;48.102;-1.652;2023-05-07T16:13:47;3.63;;;1.40;;
39948;SDS011;29070;48.102;-1.652;2023-05-07T16:18:47;4.17;;;1.10;;
39948;SDS011;29070;48.102;-1.652;2023-05-07T16:23:47;3.17;;;1.03;;
39948;SDS011;29070;48.102;-1.652;2023-05-07T16:28:49;7.90;;;1.48;;
39948;SDS011;29070;48.102;-1.652;2023-05-07T16:33:50;3.80;;;0.90;;
39948;SDS011;29070;48.102;-1.652;2023-05-07T16:38:51;4.90;;;1.20;;
39948;SDS011;29070;48.102;-1.652;2023-05-07T16:43:51;4.60;;;1.70;;
39948;SDS011;29070;48.102;-1.652;2023-05-07T16:48:52;3.20;;;1.07;;
39948;SDS011;29070;48.102;-1.652;2023-05-07T16:53:52;5.85;;;1.63;;
39948;SDS011;29070;48.102;-1.652;2023-05-07T16:58:53;5.88;;;1.70;;
39948;SDS011;29070;48.102;-1.652;2023-05-07T17:03:53;4.93;;;1.93;;
39948;SDS011;29070;48.102;-1.652;2023-05-07T17:08:53;3.17;;;1.60;;
39948;SDS011;29070;48.102;-1.652;2023-05-07T17:13:54;5.23;;;1.80;;
39948;SDS011;29070;48.102;-1.652;2023-05-07T17:18:54;4.03;;;1.33;;
39948;SDS011;29070;48.102;-1.652;2023-05-07T17:23:55;6.90;;;1.47;;
39948;SDS011;29070;48.102;-1.652;2023-05-07T17:28:55;9.00;;;1.80;;
39948;SDS011;29070;48.102;-1.652;2023-05-07T17:33:55;3.70;;;1.37;;
39948;SDS011;29070;48.102;-1.652;2023-05-07T17:38:56;5.68;;;1.20;;
39948;SDS011;29070;48.102;-1.652;2023-05-07T17:43:56;3.80;;;1.97;;
39948;SDS011;29070;48.102;-1.652;2023-05-07T17:48:56;4.83;;;1.90;;
39948;SDS011;29070;48.102;-1.652;2023-05-07T17:53:57;10.27;;;2.27;;
39948;SDS011;29070;48.102;-1.652;2023-05-07T17:58:57;7.57;;;1.50;;
39948;SDS011;29070;48.102;-1.652;2023-05-07T18:03:58;4.53;;;1.70;;
39948;SDS011;29070;48.102;-1.652;2023-05-07T18:08:59;3.95;;;1.40;;
39948;SDS011;29070;48.102;-1.652;2023-05-07T18:13:59;5.43;;;1.45;;
39948;SDS011;29070;48.102;-1.652;2023-05-07T18:19:00;5.43;;;2.15;;
39948;SDS011;29070;48.102;-1.652;2023-05-07T18:24:01;6.05;;;1.95;;
39948;SDS011;29070;48.102;-1.652;2023-05-07T18:29:01;8.40;;;2.07;;
39948;SDS011;29070;48.102;-1.652;2023-05-07T18:34:01;4.87;;;1.70;;
39948;SDS011;29070;48.102;-1.652;2023-05-07T18:39:02;7.77;;;2.00;;
39948;SDS011;29070;48.102;-1.652;2023-05-07T18:44:03;5.65;;;2.10;;
39948;SDS011;29070;48.102;-1.652;2023-05-07T18:49:03;7.65;;;2.20;;
39948;SDS011;29070;48.102;-1.652;2023-05-07T18:54:03;7.47;;;1.97;;
39948;SDS011;29070;48.102;-1.652;2023-05-07T18:59:04;8.63;;;2.20;;
39948;SDS011;29070;48.102;-1.652;2023-05-07T19:04:04;8.70;;;2.37;;
39948;SDS011;29070;48.102;-1.652;2023-05-07T19:09:05;6.50;;;2.03;;
39948;SDS011;29070;48.102;-1.652;2023-05-07T19:14:05;10.87;;;2.80;;
39948;SDS011;29070;48.102;-1.652;2023-05-07T19:19:05;7.27;;;2.67;;
39948;SDS011;29070;48.102;-1.652;2023-05-07T19:24:06;6.05;;;2.03;;
39948;SDS011;29070;48.102;-1.652;2023-05-07T19:29:07;8.43;;;1.85;;
39948;SDS011;29070;48.102;-1.652;2023-05-07T19:34:07;7.77;;;2.03;;
39948;SDS011;29070;48.102;-1.652;2023-05-07T19:39:07;8.90;;;2.67;;
39948;SDS011;29070;48.102;-1.652;2023-05-07T19:44:08;7.23;;;1.80;;
39948;SDS011;29070;48.102;-1.652;2023-05-07T19:49:08;8.00;;;2.17;;
39948;SDS011;29070;48.102;-1.652;2023-05-07T19:54:09;4.97;;;1.80;;
39948;SDS011;29070;48.102;-1.652;2023-05-07T19:59:09;11.80;;;2.10;;
39948;SDS011;29070;48.102;-1.652;2023-05-07T20:04:09;9.37;;;1.87;;
39948;SDS011;29070;48.102;-1.652;2023-05-07T20:09:10;8.70;;;2.23;;
39948;SDS011;29070;48.102;-1.652;2023-05-07T20:14:11;10.75;;;2.10;;
39948;SDS011;29070;48.102;-1.652;2023-05-07T20:19:12;7.03;;;1.80;;
39948;SDS011;29070;48.102;-1.652;2023-05-07T20:24:12;13.77;;;2.57;;
39948;SDS011;29070;48.102;-1.652;2023-05-07T20:29:12;7.30;;;2.33;;
39948;SDS011;29070;48.102;-1.652;2023-05-07T20:34:13;6.30;;;2.23;;
39948;SDS011;29070;48.102;-1.652;2023-05-07T20:39:13;4.83;;;2.10;;
39948;SDS011;29070;48.102;-1.652;2023-05-07T20:44:15;6.20;;;2.00;;
39948;SDS011;29070;48.102;-1.652;2023-05-07T20:49:16;9.80;;;2.33;;
39948;SDS011;29070;48.102;-1.652;2023-05-07T20:54:16;6.23;;;2.80;;
39948;SDS011;29070;48.102;-1.652;2023-05-07T20:59:17;9.10;;;3.90;;
39948;SDS011;29070;48.102;-1.652;2023-05-07T21:04:17;8.13;;;3.53;;
39948;SDS011;29070;48.102;-1.652;2023-05-07T21:09:18;11.53;;;3.30;;
39948;SDS011;29070;48.102;-1.652;2023-05-07T21:14:19;9.88;;;4.22;;
39948;SDS011;29070;48.102;-1.652;2023-05-07T21:19:19;18.70;;;9.38;;
39948;SDS011;29070;48.102;-1.652;2023-05-07T21:24:20;20.83;;;11.38;;
39948;SDS011;29070;48.102;-1.652;2023-05-07T21:29:20;24.10;;;10.43;;
39948;SDS011;29070;48.102;-1.652;2023-05-07T21:34:21;23.85;;;11.07;;
39948;SDS011;29070;48.102;-1.652;2023-05-07T21:39:21;20.77;;;10.47;;
39948;SDS011;29070;48.102;-1.652;2023-05-07T21:44:21;24.07;;;9.17;;
39948;SDS011;29070;48.102;-1.652;2023-05-07T21:49:22;14.37;;;5.93;;
39948;SDS011;29070;48.102;-1.652;2023-05-07T21:54:22;11.67;;;4.93;;
39948;SDS011;29070;48.102;-1.652;2023-05-07T21:59:22;12.30;;;3.20;;
39948;SDS011;29070;48.102;-1.652;2023-05-07T22:04:24;6.13;;;2.30;;
39948;SDS011;29070;48.102;-1.652;2023-05-07T22:09:24;3.85;;;1.63;;
39948;SDS011;29070;48.102;-1.652;2023-05-07T22:14:25;3.70;;;1.67;;
39948;SDS011;29070;48.102;-1.652;2023-05-07T22:19:25;5.00;;;2.03;;
39948;SDS011;29070;48.102;-1.652;2023-05-07T22:24:25;9.30;;;2.10;;
39948;SDS011;29070;48.102;-1.652;2023-05-07T22:29:26;10.48;;;2.13;;
39948;SDS011;29070;48.102;-1.652;2023-05-07T22:34:26;6.10;;;1.98;;
39948;SDS011;29070;48.102;-1.652;2023-05-07T22:39:27;4.67;;;1.80;;
39948;SDS011;29070;48.102;-1.652;2023-05-07T22:44:30;5.40;;;2.10;;
39948;SDS011;29070;48.102;-1.652;2023-05-07T22:49:32;3.93;;;1.73;;
39948;SDS011;29070;48.102;-1.652;2023-05-07T22:54:33;17.77;;;2.95;;
39948;SDS011;29070;48.102;-1.652;2023-05-07T22:59:34;7.57;;;2.33;;
39948;SDS011;29070;48.102;-1.652;2023-05-07T23:04:34;7.22;;;2.17;;
39948;SDS011;29070;48.102;-1.652;2023-05-07T23:09:35;5.90;;;2.13;;
39948;SDS011;29070;48.102;-1.652;2023-05-07T23:14:35;8.32;;;2.42;;
39948;SDS011;29070;48.102;-1.652;2023-05-07T23:19:36;8.83;;;2.27;;
39948;SDS011;29070;48.102;-1.652;2023-05-07T23:24:36;6.67;;;1.77;;
39948;SDS011;29070;48.102;-1.652;2023-05-07T23:29:36;3.97;;;1.75;;
39948;SDS011;29070;48.102;-1.652;2023-05-07T23:34:37;5.23;;;2.30;;
39948;SDS011;29070;48.102;-1.652;2023-05-07T23:39:37;4.83;;;1.73;;
39948;SDS011;29070;48.102;-1.652;2023-05-07T23:44:37;8.40;;;2.30;;
39948;SDS011;29070;48.102;-1.652;2023-05-07T23:49:38;7.85;;;2.58;;
39948;SDS011;29070;48.102;-1.652;2023-05-07T23:54:38;6.33;;;2.33;;
39948;SDS011;29070;48.102;-1.652;2023-05-07T23:59:38;5.50;;;1.83;;
